createdAt,value
2019-03-05T00:01:52.329Z,93.20
2019-03-05T00:04:40.232Z,93.50
2019-03-05T00:07:27.833Z,94.00
2019-03-05T00:10:16.118Z,94.20
2019-03-05T00:13:03.806Z,94.30
2019-03-05T00:15:52.836Z,94.30
2019-03-05T00:18:40.530Z,94.20
2019-03-05T00:21:28.158Z,94.00
2019-03-05T00:24:52.467Z,93.80
2019-03-05T00:27:53.780Z,93.60
2019-03-05T00:31:00.278Z,93.30
2019-03-05T00:34:06.464Z,93.10
2019-03-05T00:37:21.306Z,93.00
2019-03-05T00:40:55.818Z,93.00
2019-03-05T00:44:04.691Z,93.10
2019-03-05T00:47:39.993Z,93.40
2019-03-05T00:51:27.533Z,93.70
2019-03-05T00:54:41.765Z,94.40
2019-03-05T00:58:15.186Z,94.80
2019-03-05T01:01:12.201Z,95.00
2019-03-05T01:04:42.933Z,95.60
2019-03-05T01:07:31.339Z,96.20
2019-03-05T01:10:20.405Z,96.50
2019-03-05T01:13:08.997Z,96.70
2019-03-05T01:15:56.534Z,96.90
2019-03-05T01:18:44.211Z,97.00
2019-03-05T01:21:31.684Z,97.00
2019-03-05T01:24:19.949Z,96.60
2019-03-05T01:27:07.918Z,96.60
2019-03-05T01:29:55.851Z,96.60
2019-03-05T01:32:50.794Z,96.70
2019-03-05T01:35:47.158Z,96.70
2019-03-05T01:38:44.152Z,96.80
2019-03-05T01:41:31.859Z,96.90
2019-03-05T01:44:19.847Z,97.20
2019-03-05T01:47:07.363Z,96.80
2019-03-05T01:49:55.369Z,96.70
2019-03-05T01:52:43.414Z,96.60
2019-03-05T01:55:30.850Z,96.60
2019-03-05T01:58:18.521Z,96.60
2019-03-05T02:01:06.749Z,96.70
2019-03-05T02:03:54.369Z,96.70
2019-03-05T02:06:42.659Z,96.50
2019-03-05T02:09:30.067Z,96.50
2019-03-05T02:12:18.236Z,96.50
2019-03-05T02:15:06.360Z,96.50
2019-03-05T02:17:54.033Z,96.30
2019-03-05T02:20:41.829Z,96.20
2019-03-05T02:23:43.534Z,95.90
2019-03-05T02:27:36.770Z,95.60
2019-03-05T02:30:46.372Z,95.40
2019-03-05T02:33:46.881Z,95.00
2019-03-05T02:37:08.949Z,94.90
2019-03-05T02:40:43.926Z,94.80
2019-03-05T02:43:57.759Z,94.70
2019-03-05T02:47:29.771Z,94.60
2019-03-05T02:50:56.438Z,94.50
2019-03-05T02:54:21.384Z,94.70
2019-03-05T02:57:08.323Z,94.70
2019-03-05T02:59:56.436Z,94.40
2019-03-05T03:02:49.761Z,94.50
2019-03-05T03:05:44.750Z,94.60
2019-03-05T03:08:32.395Z,94.40
2019-03-05T03:11:19.847Z,94.60
2019-03-05T03:14:07.727Z,94.40
2019-03-05T03:16:55.452Z,94.50
2019-03-05T03:19:43.585Z,94.30
2019-03-05T03:22:31.424Z,94.40
2019-03-05T03:25:20.409Z,94.30
2019-03-05T03:28:07.871Z,94.20
2019-03-05T03:30:55.706Z,94.00
2019-03-05T03:33:43.654Z,93.10
2019-03-05T03:36:31.274Z,92.60
2019-03-05T03:39:18.953Z,92.50
2019-03-05T03:42:06.411Z,92.20
2019-03-05T03:44:54.204Z,92.20
2019-03-05T03:47:42.126Z,92.30
2019-03-05T03:50:29.503Z,91.60
2019-03-05T03:53:17.697Z,91.60
2019-03-05T03:56:05.317Z,91.40
2019-03-05T03:58:53.030Z,91.50
2019-03-05T04:01:40.517Z,91.50
2019-03-05T04:04:28.301Z,91.40
2019-03-05T04:07:16.251Z,91.50
2019-03-05T04:10:04.752Z,91.50
2019-03-05T04:12:52.170Z,91.50
2019-03-05T04:15:40.174Z,91.10
2019-03-05T04:18:28.212Z,91.30
2019-03-05T04:21:19.914Z,91.20
2019-03-05T04:24:05.928Z,91.00
2019-03-05T04:26:53.797Z,91.00
2019-03-05T04:29:41.532Z,91.20
2019-03-05T04:32:28.883Z,91.30
2019-03-05T04:35:16.265Z,91.30
2019-03-05T04:38:04.356Z,91.20
2019-03-05T04:40:51.697Z,91.20
2019-03-05T04:43:39.488Z,91.30
2019-03-05T04:46:34.411Z,91.10
2019-03-05T04:49:36.938Z,91.30
2019-03-05T04:52:28.408Z,91.10
2019-03-05T04:55:16.295Z,90.90
2019-03-05T04:58:03.812Z,90.10
2019-03-05T05:00:51.545Z,89.70
2019-03-05T05:03:39.593Z,89.20
2019-03-05T05:06:27.361Z,88.80
2019-03-05T05:09:15.078Z,88.80
2019-03-05T05:12:02.707Z,88.60
2019-03-05T05:14:50.308Z,88.60
2019-03-05T05:17:37.847Z,88.80
2019-03-05T05:20:25.432Z,88.50
2019-03-05T05:23:13.100Z,88.40
2019-03-05T05:26:01.250Z,88.30
2019-03-05T05:28:49.093Z,88.30
2019-03-05T05:31:36.932Z,88.30
2019-03-05T05:34:24.949Z,88.40
2019-03-05T05:37:12.444Z,88.50
2019-03-05T05:40:27.784Z,88.20
2019-03-05T05:43:18.204Z,88.20
2019-03-05T05:46:06.061Z,88.60
2019-03-05T05:48:53.465Z,89.00
2019-03-05T05:51:41.208Z,89.60
2019-03-05T05:54:28.888Z,89.80
2019-03-05T05:57:16.685Z,90.00
2019-03-05T06:00:04.645Z,90.00
2019-03-05T06:02:52.271Z,90.20
2019-03-05T06:05:40.035Z,90.30
2019-03-05T06:08:28.614Z,90.40
2019-03-05T06:11:16.797Z,90.30
2019-03-05T06:14:04.492Z,90.30
2019-03-05T06:16:51.787Z,90.30
2019-03-05T06:19:39.510Z,90.40
2019-03-05T06:22:27.534Z,90.50
2019-03-05T06:25:15.324Z,90.80
2019-03-05T06:28:02.993Z,91.20
2019-03-05T06:30:50.847Z,91.70
2019-03-05T06:33:38.658Z,92.00
2019-03-05T06:36:26.225Z,92.50
2019-03-05T06:39:14.078Z,93.00
2019-03-05T06:42:01.474Z,93.60
2019-03-05T06:44:49.142Z,94.00
2019-03-05T06:47:36.945Z,94.30
2019-03-05T06:50:25.023Z,94.60
2019-03-05T06:53:12.613Z,94.80
2019-03-05T06:55:59.916Z,95.10
2019-03-05T06:58:47.660Z,95.40
2019-03-05T07:01:35.410Z,95.60
2019-03-05T07:04:22.922Z,95.70
2019-03-05T07:07:10.438Z,95.80
2019-03-05T07:10:22.371Z,95.90
2019-03-05T07:13:18.912Z,95.90
2019-03-05T07:16:29.189Z,95.80
2019-03-05T07:19:32.441Z,95.60
2019-03-05T07:22:34.327Z,95.30
2019-03-05T07:25:21.937Z,95.20
2019-03-05T07:28:09.420Z,95.20
2019-03-05T07:30:57.097Z,95.00
2019-03-05T07:33:44.819Z,94.80
2019-03-05T07:36:32.845Z,94.80
2019-03-05T07:39:22.925Z,93.60
2019-03-05T07:42:10.860Z,93.50
2019-03-05T07:44:58.558Z,93.20
2019-03-05T07:47:46.509Z,93.30
2019-03-05T07:50:34.307Z,92.60
2019-03-05T07:53:22.422Z,92.00
2019-03-05T07:56:10.365Z,91.50
2019-03-05T07:58:57.981Z,90.20
2019-03-05T08:01:46.016Z,88.50
2019-03-05T08:04:33.917Z,86.70
2019-03-05T08:07:21.560Z,85.20
2019-03-05T08:10:15.384Z,85.50
2019-03-05T08:13:13.388Z,83.40
2019-03-05T08:16:27.640Z,83.40
2019-03-05T08:19:15.249Z,81.90
2019-03-05T08:22:04.492Z,78.90
2019-03-05T08:24:52.898Z,79.00
2019-03-05T08:27:40.269Z,78.40
2019-03-05T08:30:27.885Z,78.70
2019-03-05T08:33:15.753Z,78.40
2019-03-05T08:36:04.211Z,77.30
2019-03-05T08:38:52.327Z,77.00
2019-03-05T08:41:40.354Z,77.20
2019-03-05T08:44:28.715Z,77.20
2019-03-05T08:47:16.472Z,77.30
2019-03-05T08:50:04.502Z,77.60
2019-03-05T08:52:51.872Z,78.20
2019-03-05T08:55:39.426Z,75.90
2019-03-05T08:58:27.356Z,77.70
2019-03-05T09:01:15.746Z,77.70
2019-03-05T09:04:03.330Z,76.60
2019-03-05T09:06:51.336Z,75.50
2019-03-05T09:09:38.973Z,76.10
2019-03-05T09:12:26.714Z,76.30
2019-03-05T09:15:15.830Z,76.30
2019-03-05T09:18:03.704Z,76.10
2019-03-05T09:20:51.096Z,76.50
2019-03-05T09:23:39.177Z,77.20
2019-03-05T09:26:26.782Z,77.60
2019-03-05T09:29:14.435Z,77.40
2019-03-05T09:32:02.004Z,78.50
2019-03-05T09:34:49.821Z,77.80
2019-03-05T09:37:37.824Z,77.20
2019-03-05T09:40:26.007Z,76.70
2019-03-05T09:43:13.787Z,75.00
2019-03-05T09:46:01.236Z,75.40
2019-03-05T09:48:49.085Z,75.50
2019-03-05T09:51:36.544Z,75.40
2019-03-05T09:54:24.566Z,73.90
2019-03-05T09:57:12.172Z,72.50
2019-03-05T09:59:59.730Z,74.50
2019-03-05T10:02:47.451Z,73.30
2019-03-05T10:05:35.492Z,69.70
2019-03-05T10:08:32.140Z,68.30
2019-03-05T10:11:13.550Z,68.70
2019-03-05T10:14:01.255Z,67.90
2019-03-05T10:16:48.992Z,67.50
2019-03-05T10:19:38.463Z,66.40
2019-03-05T10:22:26.130Z,65.30
2019-03-05T10:25:16.114Z,64.20
2019-03-05T10:28:04.844Z,65.40
2019-03-05T10:30:52.305Z,65.50
2019-03-05T10:33:40.334Z,65.30
2019-03-05T10:36:27.714Z,64.00
2019-03-05T10:39:30.396Z,66.50
2019-03-05T10:42:15.819Z,64.50
2019-03-05T10:45:04.693Z,65.40
2019-03-05T10:47:53.249Z,65.10
2019-03-05T10:50:41.276Z,64.40
2019-03-05T10:53:29.267Z,63.40
2019-03-05T10:56:17.060Z,64.40
2019-03-05T10:59:05.525Z,63.60
2019-03-05T11:01:53.643Z,61.40
2019-03-05T11:04:45.692Z,59.40
2019-03-05T11:07:30.771Z,60.20
2019-03-05T11:10:19.014Z,61.30
2019-03-05T11:13:07.501Z,62.20
2019-03-05T11:15:56.393Z,60.70
2019-03-05T11:18:43.969Z,59.40
2019-03-05T11:21:31.407Z,58.00
2019-03-05T11:24:19.015Z,59.70
2019-03-05T11:27:06.521Z,59.60
2019-03-05T11:29:54.764Z,56.60
2019-03-05T11:32:43.080Z,56.60
2019-03-05T11:35:31.780Z,57.70
2019-03-05T11:38:19.962Z,57.10
2019-03-05T11:41:07.746Z,55.50
2019-03-05T11:43:55.220Z,57.10
2019-03-05T11:46:43.396Z,55.50
2019-03-05T11:49:31.034Z,55.70
2019-03-05T11:52:18.622Z,54.60
2019-03-05T11:55:07.774Z,54.50
2019-03-05T11:57:55.270Z,54.40
2019-03-05T12:01:08.057Z,54.40
2019-03-05T12:03:55.446Z,54.10
2019-03-05T12:06:43.120Z,54.40
2019-03-05T12:09:30.698Z,54.80
2019-03-05T12:12:18.444Z,55.50
2019-03-05T12:15:09.478Z,55.30
2019-03-05T12:17:57.650Z,54.70
2019-03-05T12:20:45.407Z,54.40
2019-03-05T12:23:33.666Z,53.90
2019-03-05T12:26:20.945Z,54.60
2019-03-05T12:29:08.477Z,54.80
2019-03-05T12:31:56.006Z,53.80
2019-03-05T12:34:43.926Z,55.70
2019-03-05T12:37:31.719Z,55.10
2019-03-05T12:40:19.605Z,54.50
2019-03-05T12:43:07.395Z,54.60
2019-03-05T12:45:54.880Z,53.20
2019-03-05T12:48:43.021Z,52.90
2019-03-05T12:51:30.800Z,54.40
2019-03-05T12:54:18.066Z,55.30
2019-03-05T12:57:06.039Z,53.90
2019-03-05T12:59:54.045Z,51.30
2019-03-05T13:02:42.114Z,52.00
2019-03-05T13:05:29.436Z,50.10
2019-03-05T13:08:16.758Z,51.30
2019-03-05T13:11:04.237Z,50.60
2019-03-05T13:14:05.435Z,51.10
2019-03-05T13:16:41.301Z,50.80
2019-03-05T13:19:28.951Z,51.10
2019-03-05T13:22:16.931Z,52.10
2019-03-05T13:25:04.961Z,50.70
2019-03-05T13:27:53.073Z,49.90
2019-03-05T13:30:41.036Z,50.60
2019-03-05T13:33:28.904Z,51.90
2019-03-05T13:36:16.989Z,52.60
2019-03-05T13:39:05.965Z,51.40
2019-03-05T13:41:53.808Z,50.60
2019-03-05T13:44:42.221Z,49.70
2019-03-05T13:47:29.684Z,50.80
2019-03-05T13:51:10.647Z,49.40
2019-03-05T13:54:28.506Z,48.70
2019-03-05T13:58:06.872Z,49.60
2019-03-05T14:00:54.699Z,48.30
2019-03-05T14:03:51.322Z,48.90
2019-03-05T14:07:02.424Z,48.10
2019-03-05T14:09:51.804Z,46.70
2019-03-05T14:12:39.439Z,47.80
2019-03-05T14:15:27.363Z,47.20
2019-03-05T14:18:15.576Z,46.70
2019-03-05T14:21:04.008Z,46.50
2019-03-05T14:23:52.182Z,46.50
2019-03-05T14:26:39.904Z,46.30
2019-03-05T14:29:29.362Z,47.40
2019-03-05T14:32:17.223Z,47.60
2019-03-05T14:35:17.544Z,47.50
2019-03-05T14:38:05.460Z,47.60
2019-03-05T14:40:53.685Z,48.90
2019-03-05T14:43:41.757Z,48.90
2019-03-05T14:46:29.754Z,49.40
2019-03-05T14:49:17.768Z,50.00
2019-03-05T14:52:06.506Z,50.50
2019-03-05T14:54:54.754Z,51.70
2019-03-05T14:57:42.451Z,50.90
2019-03-05T15:00:30.170Z,52.50
2019-03-05T15:03:18.071Z,52.70
2019-03-05T15:06:06.082Z,53.60
2019-03-05T15:08:53.914Z,54.50
2019-03-05T15:11:41.482Z,54.80
2019-03-05T15:14:29.612Z,55.40
2019-03-05T15:17:17.161Z,56.30
2019-03-05T15:20:05.620Z,57.40
2019-03-05T15:22:53.501Z,57.50
2019-03-05T15:25:41.705Z,57.90
2019-03-05T15:28:29.585Z,58.50
2019-03-05T15:31:17.624Z,58.90
2019-03-05T15:34:05.210Z,60.20
2019-03-05T15:36:52.986Z,59.50
2019-03-05T15:39:41.331Z,59.90
2019-03-05T15:42:29.412Z,60.70
2019-03-05T15:45:17.685Z,61.10
2019-03-05T15:48:05.744Z,61.90
2019-03-05T15:50:53.260Z,62.90
2019-03-05T15:53:41.782Z,63.90
2019-03-05T15:56:29.671Z,64.20
2019-03-05T15:59:17.316Z,65.00
2019-03-05T16:02:05.474Z,65.80
2019-03-05T16:04:52.669Z,65.80
2019-03-05T16:07:43.941Z,66.70
2019-03-05T16:10:29.880Z,67.50
2019-03-05T16:13:19.417Z,68.70
2019-03-05T16:16:06.906Z,69.20
2019-03-05T16:18:54.415Z,70.00
2019-03-05T16:21:42.840Z,71.20
2019-03-05T16:24:33.963Z,71.70
2019-03-05T16:27:20.242Z,72.40
2019-03-05T16:30:15.889Z,73.30
2019-03-05T16:33:23.819Z,73.80
2019-03-05T16:36:33.336Z,74.80
2019-03-05T16:39:42.810Z,75.70
2019-03-05T16:42:48.578Z,76.10
2019-03-05T16:46:00.950Z,76.10
2019-03-05T16:49:06.536Z,76.20
2019-03-05T16:52:04.315Z,76.40
2019-03-05T16:55:15.352Z,76.30
2019-03-05T16:58:15.328Z,76.60
2019-03-05T17:01:16.359Z,76.70
2019-03-05T17:04:23.297Z,76.90
2019-03-05T17:07:21.493Z,77.40
2019-03-05T17:10:30.090Z,77.50
2019-03-05T17:13:18.239Z,77.90
2019-03-05T17:16:06.069Z,78.90
2019-03-05T17:18:53.926Z,79.70
2019-03-05T17:21:41.541Z,80.90
2019-03-05T17:24:29.446Z,81.40
2019-03-05T17:27:17.452Z,82.50
2019-03-05T17:30:10.472Z,82.90
2019-03-05T17:32:58.269Z,83.30
2019-03-05T17:35:46.086Z,83.80
2019-03-05T17:38:33.944Z,83.70
2019-03-05T17:41:21.558Z,84.00
2019-03-05T17:44:09.470Z,84.40
2019-03-05T17:46:57.615Z,84.40
2019-03-05T17:49:45.232Z,84.70
2019-03-05T17:52:33.022Z,84.50
2019-03-05T17:55:24.648Z,84.70
2019-03-05T17:58:10.656Z,84.20
2019-03-05T18:00:58.278Z,84.60
2019-03-05T18:03:46.166Z,84.40
2019-03-05T18:06:34.025Z,84.50
2019-03-05T18:09:21.698Z,84.50
2019-03-05T18:12:09.378Z,84.40
2019-03-05T18:14:57.438Z,84.10
2019-03-05T18:17:44.909Z,83.60
2019-03-05T18:20:32.655Z,83.50
2019-03-05T18:23:20.121Z,82.90
2019-03-05T18:26:08.150Z,82.60
2019-03-05T18:28:56.320Z,82.00
2019-03-05T18:31:43.748Z,81.90
2019-03-05T18:34:31.256Z,81.90
2019-03-05T18:37:19.102Z,82.00
2019-03-05T18:40:08.185Z,81.40
2019-03-05T18:42:55.777Z,81.30
2019-03-05T18:45:43.292Z,80.90
2019-03-05T18:48:31.011Z,80.80
2019-03-05T18:51:19.490Z,79.90
2019-03-05T18:54:07.442Z,79.40
2019-03-05T18:56:55.720Z,78.80
2019-03-05T18:59:43.135Z,78.80
2019-03-05T19:02:30.928Z,78.20
2019-03-05T19:05:18.735Z,77.70
2019-03-05T19:08:06.630Z,77.60
2019-03-05T19:10:54.417Z,77.10
2019-03-05T19:13:42.183Z,76.80
2019-03-05T19:16:30.177Z,76.60
2019-03-05T19:19:18.134Z,76.20
2019-03-05T19:22:05.771Z,76.10
2019-03-05T19:24:53.531Z,75.60
2019-03-05T19:27:41.228Z,75.50
2019-03-05T19:30:31.460Z,74.70
2019-03-05T19:33:19.837Z,75.00
2019-03-05T19:36:07.829Z,74.40
2019-03-05T19:38:55.542Z,74.30
2019-03-05T19:41:43.563Z,73.20
2019-03-05T19:44:31.013Z,72.50
2019-03-05T19:47:19.033Z,73.60
2019-03-05T19:50:08.457Z,77.00
2019-03-05T19:52:56.484Z,77.90
2019-03-05T19:55:43.901Z,79.60
2019-03-05T19:58:31.905Z,78.90
2019-03-05T20:01:31.884Z,79.80
2019-03-05T20:04:20.088Z,82.00
2019-03-05T20:07:08.336Z,84.90
2019-03-05T20:09:56.462Z,88.20
2019-03-05T20:12:44.597Z,90.20
2019-03-05T20:15:32.489Z,91.00
2019-03-05T20:18:20.529Z,91.30
2019-03-05T20:21:09.553Z,91.80
2019-03-05T20:23:57.481Z,92.10
2019-03-05T20:26:49.318Z,92.60
2019-03-05T20:29:37.028Z,92.70
2019-03-05T20:32:25.133Z,93.10
2019-03-05T20:35:13.165Z,93.20
2019-03-05T20:38:00.492Z,92.80
2019-03-05T20:40:49.070Z,93.00
2019-03-05T20:43:36.681Z,92.90
2019-03-05T20:46:26.160Z,93.10
2019-03-05T20:49:13.933Z,93.20
2019-03-05T20:52:01.511Z,93.20
2019-03-05T20:54:49.384Z,93.40
2019-03-05T20:57:38.061Z,93.70
2019-03-05T21:00:27.839Z,94.10
2019-03-05T21:03:15.745Z,94.50
2019-03-05T21:06:03.943Z,94.80
2019-03-05T21:08:51.791Z,94.80
2019-03-05T21:11:39.632Z,94.80
2019-03-05T21:14:27.164Z,94.90
2019-03-05T21:17:14.773Z,95.20
2019-03-05T21:20:02.779Z,95.20
2019-03-05T21:22:50.860Z,95.10
2019-03-05T21:25:38.436Z,95.00
2019-03-05T21:28:26.673Z,95.20
2019-03-05T21:31:14.756Z,95.30
2019-03-05T21:34:02.945Z,95.20
2019-03-05T21:36:50.845Z,95.20
2019-03-05T21:39:38.888Z,95.10
2019-03-05T21:42:28.930Z,95.00
2019-03-05T21:45:39.088Z,95.10
2019-03-05T21:48:27.498Z,94.90
2019-03-05T21:51:14.922Z,95.10
2019-03-05T21:54:02.698Z,95.10
2019-03-05T21:56:50.534Z,95.00
2019-03-05T21:59:43.589Z,94.80
2019-03-05T22:02:31.773Z,94.90
2019-03-05T22:05:26.296Z,95.10
2019-03-05T22:08:17.088Z,95.10
2019-03-05T22:11:07.908Z,95.00
2019-03-05T22:14:01.144Z,95.20
2019-03-05T22:16:50.792Z,95.30
2019-03-05T22:19:41.058Z,95.40
2019-03-05T22:22:29.355Z,95.20
2019-03-05T22:25:18.463Z,95.40
2019-03-05T22:28:06.696Z,95.30
2019-03-05T22:30:54.774Z,95.30
2019-03-05T22:33:46.828Z,95.20
2019-03-05T22:36:43.724Z,95.40
2019-03-05T22:39:31.404Z,95.30
2019-03-05T22:42:19.174Z,95.40
2019-03-05T22:45:09.341Z,95.20
2019-03-05T22:47:57.122Z,95.60
2019-03-05T22:50:44.936Z,95.60
2019-03-05T22:53:32.424Z,95.50
2019-03-05T22:56:20.114Z,95.50
2019-03-05T22:59:07.744Z,95.50
2019-03-05T23:01:55.299Z,96.00
2019-03-05T23:04:44.695Z,95.70
2019-03-05T23:07:35.648Z,95.60
2019-03-05T23:10:23.389Z,95.60
2019-03-05T23:13:11.836Z,95.70
2019-03-05T23:16:00.146Z,95.60
2019-03-05T23:18:47.807Z,95.60
2019-03-05T23:21:35.242Z,95.80
2019-03-05T23:24:22.979Z,95.60
2019-03-05T23:27:10.770Z,95.70
2019-03-05T23:29:58.772Z,95.60
2019-03-05T23:32:47.999Z,95.80
2019-03-05T23:35:35.945Z,95.70
2019-03-05T23:38:23.848Z,95.70
2019-03-05T23:41:11.799Z,95.60
2019-03-05T23:43:59.523Z,95.50
2019-03-05T23:46:47.715Z,95.50
2019-03-05T23:49:35.744Z,95.40
2019-03-05T23:52:23.681Z,95.60
2019-03-05T23:55:11.529Z,95.30
2019-03-05T23:57:58.949Z,95.40
